createdAt,value
2022-08-05T00:00:21.852Z,20.61
2022-08-05T00:03:27.146Z,20.59
2022-08-05T00:06:35.797Z,20.61
2022-08-05T00:09:41.996Z,20.63
2022-08-05T00:12:56.366Z,20.61
2022-08-05T00:15:55.879Z,20.62
2022-08-05T00:18:48.092Z,20.61
2022-08-05T00:21:54.912Z,20.62
2022-08-05T00:25:01.189Z,20.63
2022-08-05T00:28:07.922Z,20.64
2022-08-05T00:31:15.528Z,20.67
2022-08-05T00:34:53.951Z,20.66
2022-08-05T00:37:50.926Z,20.63
2022-08-05T00:40:36.182Z,20.61
2022-08-05T00:43:50.072Z,20.61
2022-08-05T00:46:54.311Z,20.58
2022-08-05T00:49:58.972Z,20.53
2022-08-05T00:52:58.790Z,20.52
2022-08-05T00:55:58.899Z,20.55
2022-08-05T00:59:06.918Z,20.56
2022-08-05T01:02:15.020Z,20.56
2022-08-05T01:05:23.227Z,20.56
2022-08-05T01:08:41.291Z,20.51
2022-08-05T01:11:47.320Z,20.47
2022-08-05T01:15:05.420Z,20.44
2022-08-05T01:18:15.427Z,20.36
2022-08-05T01:21:42.706Z,20.29
2022-08-05T01:25:21.413Z,20.25
2022-08-05T01:28:57.477Z,20.18
2022-08-05T01:32:12.379Z,20.12
2022-08-05T01:35:50.635Z,20.09
2022-08-05T01:38:30.161Z,20.05
2022-08-05T01:41:37.679Z,19.96
2022-08-05T01:44:45.781Z,19.93
2022-08-05T01:47:54.440Z,19.91
2022-08-05T01:51:08.703Z,19.86
2022-08-05T01:54:09.852Z,19.83
2022-08-05T01:58:10.898Z,19.82
2022-08-05T02:00:29.894Z,19.81
2022-08-05T02:03:49.106Z,19.81
2022-08-05T02:06:56.400Z,19.78
2022-08-05T02:10:03.608Z,19.75
2022-08-05T02:13:16.011Z,19.70
2022-08-05T02:16:41.496Z,19.65
2022-08-05T02:19:52.277Z,19.61
2022-08-05T02:23:00.747Z,19.58
2022-08-05T02:26:05.980Z,19.59
2022-08-05T02:29:17.311Z,19.60
2022-08-05T02:32:24.037Z,19.60
2022-08-05T02:35:37.560Z,19.59
2022-08-05T02:38:44.122Z,19.63
2022-08-05T02:42:01.307Z,19.65
2022-08-05T02:44:58.588Z,19.66
2022-08-05T02:48:12.577Z,19.69
2022-08-05T02:51:15.791Z,19.70
2022-08-05T02:54:35.814Z,19.72
2022-08-05T02:58:09.653Z,19.73
2022-08-05T03:00:38.636Z,19.74
2022-08-05T03:04:02.189Z,19.75
2022-08-05T03:06:59.534Z,19.76
2022-08-05T03:10:00.588Z,19.77
2022-08-05T03:13:09.618Z,19.77
2022-08-05T03:16:16.741Z,19.78
2022-08-05T03:19:34.054Z,19.79
2022-08-05T03:22:32.925Z,19.79
2022-08-05T03:26:03.505Z,19.81
2022-08-05T03:28:47.806Z,19.79
2022-08-05T03:31:57.173Z,19.80
2022-08-05T03:35:00.761Z,19.83
2022-08-05T03:38:06.194Z,19.86
2022-08-05T03:41:11.673Z,19.88
2022-08-05T03:44:20.219Z,19.89
2022-08-05T03:47:20.290Z,19.93
2022-08-05T03:50:07.213Z,19.98
2022-08-05T03:55:52.265Z,20.03
2022-08-05T03:56:33.122Z,20.08
2022-08-05T03:59:54.827Z,20.14
2022-08-05T04:02:59.221Z,20.18
2022-08-05T04:06:08.790Z,20.20
2022-08-05T04:09:20.444Z,20.26
2022-08-05T04:12:24.958Z,20.32
2022-08-05T04:15:33.347Z,20.35
2022-08-05T04:18:39.168Z,20.41
2022-08-05T04:22:09.546Z,20.44
2022-08-05T04:25:00.892Z,20.47
2022-08-05T04:28:12.823Z,20.50
2022-08-05T04:31:16.412Z,20.56
2022-08-05T04:34:33.900Z,20.61
2022-08-05T04:38:02.616Z,20.64
2022-08-05T04:40:35.917Z,20.66
2022-08-05T04:43:48.033Z,20.67
2022-08-05T04:46:48.858Z,20.76
2022-08-05T04:50:02.733Z,20.86
2022-08-05T04:53:03.894Z,20.92
2022-08-05T04:56:33.769Z,21.00
2022-08-05T04:59:23.949Z,21.14
2022-08-05T05:02:36.947Z,21.18
2022-08-05T05:05:34.826Z,21.27
2022-08-05T05:08:42.970Z,21.42
2022-08-05T05:11:55.658Z,21.52
2022-08-05T05:14:57.206Z,21.56
2022-08-05T05:18:02.711Z,21.62
2022-08-05T05:21:08.812Z,21.62
2022-08-05T05:24:15.237Z,21.69
2022-08-05T05:27:24.449Z,21.73
2022-08-05T05:30:30.627Z,21.79
2022-08-05T05:33:17.364Z,21.84
2022-08-05T05:36:10.526Z,21.88
2022-08-05T05:39:00.387Z,21.96
2022-08-05T05:41:55.619Z,22.06
2022-08-05T05:45:09.782Z,22.18
2022-08-05T05:48:16.089Z,22.32
2022-08-05T05:51:22.798Z,22.46
2022-08-05T05:54:49.976Z,22.61
2022-08-05T05:57:53.599Z,22.73
2022-08-05T06:01:12.710Z,22.86
2022-08-05T06:04:11.341Z,23.16
2022-08-05T06:07:17.357Z,23.32
2022-08-05T06:10:29.372Z,23.43
2022-08-05T06:13:40.924Z,23.61
2022-08-05T06:16:44.214Z,23.78
2022-08-05T06:19:56.555Z,23.88
2022-08-05T06:22:59.225Z,24.01
2022-08-05T06:26:13.487Z,24.06
2022-08-05T06:29:43.048Z,24.08
2022-08-05T06:32:28.835Z,24.07
2022-08-05T06:36:07.830Z,24.00
2022-08-05T06:38:52.009Z,24.00
2022-08-05T06:42:48.701Z,24.09
2022-08-05T06:46:13.039Z,24.28
2022-08-05T06:49:21.323Z,24.39
2022-08-05T06:52:36.989Z,24.45
2022-08-05T06:55:47.681Z,24.52
2022-08-05T06:58:58.717Z,24.63
2022-08-05T07:02:10.645Z,24.83
2022-08-05T07:05:43.061Z,25.01
2022-08-05T07:09:04.058Z,25.23
2022-08-05T07:12:12.633Z,25.34
2022-08-05T07:16:01.768Z,25.40
2022-08-05T07:18:48.066Z,25.42
2022-08-05T07:22:00.778Z,25.27
2022-08-05T07:25:21.891Z,25.24
2022-08-05T07:28:17.943Z,25.24
2022-08-05T07:31:41.123Z,25.27
2022-08-05T07:34:31.829Z,25.31
2022-08-05T07:37:39.534Z,25.28
2022-08-05T07:40:46.007Z,25.33
2022-08-05T07:43:53.010Z,25.39
2022-08-05T07:47:00.697Z,25.47
2022-08-05T07:50:07.786Z,25.49
2022-08-05T07:53:14.368Z,25.43
2022-08-05T07:57:00.162Z,25.34
2022-08-05T07:59:38.591Z,25.27
2022-08-05T08:03:13.359Z,25.30
2022-08-05T08:05:50.742Z,25.35
2022-08-05T08:08:56.628Z,25.42
2022-08-05T08:12:09.711Z,25.41
2022-08-05T08:15:15.925Z,25.41
2022-08-05T08:18:28.237Z,25.44
2022-08-05T08:21:36.822Z,25.43
2022-08-05T08:24:51.310Z,25.49
2022-08-05T08:27:58.628Z,25.59
2022-08-05T08:31:15.101Z,25.73
2022-08-05T08:34:30.775Z,25.78
2022-08-05T08:37:30.338Z,25.83
2022-08-05T08:40:37.993Z,25.95
2022-08-05T08:45:18.433Z,26.05
2022-08-05T08:46:56.276Z,26.17
2022-08-05T08:50:33.018Z,26.25
2022-08-05T08:53:23.426Z,26.38
2022-08-05T08:56:33.501Z,26.43
2022-08-05T09:00:06.652Z,26.58
2022-08-05T09:03:16.163Z,26.77
2022-08-05T09:06:28.038Z,26.97
2022-08-05T09:09:35.425Z,27.13
2022-08-05T09:12:42.191Z,27.21
2022-08-05T09:15:48.874Z,27.31
2022-08-05T09:18:56.021Z,27.56
2022-08-05T09:22:22.593Z,27.77
2022-08-05T09:25:24.069Z,27.81
2022-08-05T09:28:33.192Z,27.62
2022-08-05T09:32:41.969Z,27.51
2022-08-05T09:35:10.628Z,27.60
2022-08-05T09:38:29.741Z,27.65
2022-08-05T09:41:40.726Z,27.70
2022-08-05T09:46:04.865Z,27.79
2022-08-05T09:48:12.180Z,27.90
2022-08-05T09:51:23.007Z,28.02
2022-08-05T09:54:30.178Z,28.10
2022-08-05T09:57:54.351Z,28.26
2022-08-05T10:01:32.012Z,28.24
2022-08-05T10:04:35.070Z,28.19
2022-08-05T10:08:35.230Z,28.22
2022-08-05T10:11:15.130Z,28.37
2022-08-05T10:14:45.945Z,28.48
2022-08-05T10:17:56.783Z,28.68
2022-08-05T10:21:06.399Z,28.87
2022-08-05T10:24:15.116Z,29.01
2022-08-05T10:27:26.202Z,29.15
2022-08-05T10:31:20.605Z,29.16
2022-08-05T10:33:44.651Z,29.28
2022-08-05T10:36:55.820Z,29.34
2022-08-05T10:40:17.416Z,29.49
2022-08-05T10:43:11.179Z,29.32
2022-08-05T10:46:23.841Z,29.32
2022-08-05T10:49:32.890Z,29.36
2022-08-05T10:53:08.409Z,29.44
2022-08-05T10:56:26.343Z,29.42
2022-08-05T11:00:02.103Z,29.48
2022-08-05T11:02:50.514Z,29.32
2022-08-05T11:06:03.716Z,29.21
2022-08-05T11:09:45.316Z,29.50
2022-08-05T11:12:57.629Z,29.50
2022-08-05T11:16:09.592Z,29.50
2022-08-05T11:20:10.144Z,29.32
2022-08-05T11:23:06.003Z,29.30
2022-08-05T11:26:32.391Z,29.46
2022-08-05T11:29:54.932Z,29.42
2022-08-05T11:33:06.964Z,29.42
2022-08-05T11:36:34.492Z,29.51
2022-08-05T11:39:55.459Z,29.64
2022-08-05T11:43:03.275Z,29.71
2022-08-05T11:46:23.416Z,29.83
2022-08-05T11:49:28.311Z,29.71
2022-08-05T11:52:40.809Z,29.57
2022-08-05T11:55:50.042Z,29.62
2022-08-05T11:59:00.666Z,29.77
2022-08-05T12:02:30.015Z,29.76
2022-08-05T12:05:39.898Z,29.77
2022-08-05T12:08:49.713Z,29.81
2022-08-05T12:11:57.429Z,29.81
2022-08-05T12:15:04.036Z,29.77
2022-08-05T12:18:10.515Z,29.63
2022-08-05T12:21:31.855Z,29.59
2022-08-05T12:24:49.667Z,29.60
2022-08-05T12:27:57.576Z,29.55
2022-08-05T12:31:09.235Z,29.55
2022-08-05T12:34:23.565Z,29.60
2022-08-05T12:37:29.852Z,29.67
2022-08-05T12:40:44.117Z,29.75
2022-08-05T12:44:14.201Z,29.85
2022-08-05T12:47:22.091Z,29.87
2022-08-05T12:50:32.832Z,29.85
2022-08-05T12:53:43.556Z,29.76
2022-08-05T12:57:04.416Z,29.73
2022-08-05T13:02:01.240Z,29.79
2022-08-05T13:03:26.575Z,29.72
2022-08-05T13:06:36.181Z,29.72
2022-08-05T13:09:49.091Z,29.53
2022-08-05T13:12:58.787Z,29.50
2022-08-05T13:16:10.075Z,29.50
2022-08-05T13:19:22.388Z,29.51
2022-08-05T13:22:32.011Z,29.51
2022-08-05T13:25:52.133Z,29.43
2022-08-05T13:28:47.693Z,29.42
2022-08-05T13:32:04.961Z,29.45
2022-08-05T13:35:11.691Z,29.49
2022-08-05T13:38:30.911Z,29.49
2022-08-05T13:41:34.670Z,29.52
2022-08-05T13:44:45.903Z,29.55
2022-08-05T13:48:08.723Z,29.55
2022-08-05T13:51:02.815Z,29.55
2022-08-05T13:54:13.196Z,29.53
2022-08-05T13:57:21.469Z,29.49
2022-08-05T14:00:28.003Z,29.47
2022-08-05T14:03:36.354Z,29.49
2022-08-05T14:06:47.770Z,29.50
2022-08-05T14:09:55.840Z,29.49
2022-08-05T14:13:03.008Z,29.53
2022-08-05T14:16:11.459Z,29.47
2022-08-05T14:19:17.763Z,29.47
2022-08-05T14:22:24.507Z,29.40
2022-08-05T14:25:31.810Z,29.39
2022-08-05T14:28:37.847Z,29.41
2022-08-05T14:32:02.580Z,29.37
2022-08-05T14:34:56.823Z,29.38
2022-08-05T14:38:03.422Z,29.42
2022-08-05T14:41:10.924Z,29.45
2022-08-05T14:44:22.011Z,29.46
2022-08-05T14:48:03.237Z,29.49
2022-08-05T14:50:40.647Z,29.53
2022-08-05T14:54:26.637Z,29.53
2022-08-05T14:56:54.602Z,29.42
2022-08-05T15:00:00.195Z,29.42
2022-08-05T15:03:06.413Z,29.28
2022-08-05T15:06:15.791Z,28.92
2022-08-05T15:09:51.236Z,28.92
2022-08-05T15:12:41.039Z,28.75
2022-08-05T15:15:53.964Z,28.60
2022-08-05T15:18:51.768Z,28.44
2022-08-05T15:22:05.125Z,28.31
2022-08-05T15:25:11.631Z,28.19
2022-08-05T15:28:27.037Z,28.10
2022-08-05T15:31:34.913Z,27.58
2022-08-05T15:34:43.818Z,26.82
2022-08-05T15:38:31.934Z,26.19
2022-08-05T15:41:21.307Z,25.75
2022-08-05T15:44:08.161Z,25.36
2022-08-05T15:47:17.955Z,25.13
2022-08-05T15:50:25.212Z,25.00
2022-08-05T15:53:38.573Z,24.94
2022-08-05T15:56:41.812Z,24.83
2022-08-05T15:59:52.873Z,24.70
2022-08-05T16:02:57.088Z,24.56
2022-08-05T16:06:06.651Z,24.48
2022-08-05T16:09:15.762Z,24.41
2022-08-05T16:12:24.294Z,24.36
2022-08-05T16:15:32.662Z,24.34
2022-08-05T16:18:52.805Z,24.27
2022-08-05T16:21:58.592Z,24.19
2022-08-05T16:24:59.843Z,24.14
2022-08-05T16:28:10.299Z,24.02
2022-08-05T16:31:15.696Z,23.87
2022-08-05T16:34:27.714Z,23.74
2022-08-05T16:38:11.986Z,23.56
2022-08-05T16:40:48.075Z,23.37
2022-08-05T16:43:56.187Z,23.14
2022-08-05T16:47:02.200Z,22.97
2022-08-05T16:50:12.837Z,22.86
2022-08-05T16:54:02.252Z,22.77
2022-08-05T16:56:35.053Z,22.59
2022-08-05T17:00:04.401Z,22.36
2022-08-05T17:02:49.827Z,22.16
2022-08-05T17:05:59.697Z,22.00
2022-08-05T17:09:04.337Z,21.86
2022-08-05T17:12:09.946Z,21.68
2022-08-05T17:15:19.901Z,21.46
2022-08-05T17:18:27.094Z,21.36
2022-08-05T17:21:36.251Z,21.20
2022-08-05T17:24:45.416Z,21.14
2022-08-05T17:27:49.067Z,21.11
2022-08-05T17:30:56.759Z,21.08
2022-08-05T17:34:06.500Z,21.06
2022-08-05T17:37:35.945Z,21.03
2022-08-05T17:40:24.733Z,20.99
2022-08-05T17:43:46.788Z,20.94
2022-08-05T17:46:38.450Z,20.91
2022-08-05T17:49:56.768Z,20.87
2022-08-05T17:52:52.979Z,20.86
2022-08-05T17:55:59.112Z,20.83
2022-08-05T17:59:06.756Z,20.80
2022-08-05T18:02:14.069Z,20.78
2022-08-05T18:05:23.331Z,20.72
2022-08-05T18:08:29.226Z,20.58
2022-08-05T18:11:37.477Z,20.46
2022-08-05T18:14:43.135Z,20.41
2022-08-05T18:18:00.240Z,20.37
2022-08-05T18:21:01.784Z,20.31
2022-08-05T18:24:07.547Z,20.27
2022-08-05T18:27:18.850Z,20.27
2022-08-05T18:30:26.367Z,20.25
2022-08-05T18:33:46.852Z,20.25
2022-08-05T18:36:43.480Z,20.22
2022-08-05T18:41:53.784Z,20.19
2022-08-05T18:43:00.961Z,20.13
2022-08-05T18:46:07.382Z,20.12
2022-08-05T18:49:30.332Z,20.09
2022-08-05T18:52:50.830Z,20.07
2022-08-05T18:55:54.649Z,20.07
2022-08-05T18:59:01.007Z,20.03
2022-08-05T19:02:26.578Z,20.03
2022-08-05T19:06:05.575Z,20.01
2022-08-05T19:08:30.520Z,19.95
2022-08-05T19:12:00.739Z,19.86
2022-08-05T19:15:00.312Z,19.84
2022-08-05T19:18:08.441Z,19.82
2022-08-05T19:21:03.366Z,19.74
2022-08-05T19:24:12.896Z,19.68
2022-08-05T19:27:20.568Z,19.61
2022-08-05T19:30:29.273Z,19.57
2022-08-05T19:33:38.120Z,19.53
2022-08-05T19:36:45.607Z,19.52
2022-08-05T19:39:55.447Z,19.49
2022-08-05T19:43:05.270Z,19.46
2022-08-05T19:46:16.878Z,19.44
2022-08-05T19:49:21.526Z,19.44
2022-08-05T19:52:30.515Z,19.40
2022-08-05T19:56:14.384Z,19.39
2022-08-05T19:58:53.972Z,19.42
2022-08-05T20:01:52.844Z,19.43
2022-08-05T20:05:01.308Z,19.43
2022-08-05T20:08:09.978Z,19.38
2022-08-05T20:11:19.404Z,19.36
2022-08-05T20:14:27.017Z,19.33
2022-08-05T20:17:36.423Z,19.33
2022-08-05T20:20:42.304Z,19.33
2022-08-05T20:23:53.289Z,19.33
2022-08-05T20:26:59.228Z,19.34
2022-08-05T20:30:05.300Z,19.34
2022-08-05T20:33:12.809Z,19.31
2022-08-05T20:36:23.779Z,19.31
2022-08-05T20:39:35.536Z,19.33
2022-08-05T20:42:38.045Z,19.33
2022-08-05T20:45:56.387Z,19.33
2022-08-05T20:48:56.447Z,19.33
2022-08-05T20:52:03.081Z,19.31
2022-08-05T20:55:54.714Z,19.33
2022-08-05T20:58:20.845Z,19.33
2022-08-05T21:01:37.555Z,19.33
2022-08-05T21:04:35.022Z,19.33
2022-08-05T21:07:50.849Z,19.30
2022-08-05T21:10:52.072Z,19.27
2022-08-05T21:13:58.921Z,19.22
2022-08-05T21:17:06.335Z,19.21
2022-08-05T21:20:12.798Z,19.21
2022-08-05T21:23:20.101Z,19.18
2022-08-05T21:26:29.572Z,19.18
2022-08-05T21:29:40.735Z,19.17
2022-08-05T21:32:47.789Z,19.16
2022-08-05T21:35:58.185Z,19.14
2022-08-05T21:39:02.042Z,19.12
2022-08-05T21:42:30.613Z,19.10
2022-08-05T21:45:38.149Z,19.09
2022-08-05T21:48:27.077Z,19.08
2022-08-05T21:52:21.395Z,19.08
2022-08-05T21:54:44.764Z,19.10
2022-08-05T21:57:51.642Z,19.11
2022-08-05T22:00:59.062Z,19.11
2022-08-05T22:04:05.604Z,19.11
2022-08-05T22:07:13.549Z,19.10
2022-08-05T22:10:26.517Z,19.11
2022-08-05T22:14:19.920Z,19.13
2022-08-05T22:16:41.928Z,19.14
2022-08-05T22:19:57.246Z,19.17
2022-08-05T22:22:14.637Z,19.18
2022-08-05T22:25:27.473Z,19.19
2022-08-05T22:28:14.482Z,19.19
2022-08-05T22:31:09.159Z,19.21
2022-08-05T22:34:25.594Z,19.20
2022-08-05T22:37:23.259Z,19.18
2022-08-05T22:40:31.338Z,19.16
2022-08-05T22:43:38.173Z,19.15
2022-08-05T22:46:45.240Z,19.13
2022-08-05T22:50:20.636Z,19.13
2022-08-05T22:53:00.506Z,19.13
2022-08-05T22:56:09.897Z,19.13
2022-08-05T22:59:45.331Z,19.12
2022-08-05T23:02:29.732Z,19.10
2022-08-05T23:05:30.388Z,19.07
2022-08-05T23:08:38.285Z,19.05
2022-08-05T23:11:46.650Z,19.03
2022-08-05T23:14:54.617Z,19.04
2022-08-05T23:18:03.200Z,19.03
2022-08-05T23:21:10.422Z,19.00
2022-08-05T23:24:16.899Z,19.01
2022-08-05T23:27:24.279Z,19.02
2022-08-05T23:30:27.076Z,19.00
2022-08-05T23:34:03.072Z,18.96
2022-08-05T23:36:40.325Z,18.93
2022-08-05T23:39:54.177Z,18.89
2022-08-05T23:42:47.358Z,18.86
2022-08-05T23:45:53.273Z,18.83
2022-08-05T23:49:02.111Z,18.83
2022-08-05T23:52:27.539Z,18.81
2022-08-05T23:55:33.880Z,18.79
2022-08-05T23:58:39.937Z,18.79
